Time;durP1;ratioP1;P1;durP2;ratioP2;P2;SDS_P1;SDS_P2;PMS_P1;PMS_P2;Temp;Humidity;BMP_temperature;BMP_pressure;BME280_temperature;BME280_humidity;BME280_pressure;Samples;Min_cycle;Max_cycle;Signal;HPM_P1;HPM_P2
2021/08/20 04:15:22;;;;;;;9.18;2.75;;;;;;;16.16;95.06;98785.25;5954780;23;21277;-70
2021/08/20 04:17:47;;;;;;;2.67;2.40;;;;;;;16.05;94.73;98784.84;4975269;28;20043;-76
2021/08/20 04:20:12;;;;;;;7.47;2.33;;;;;;;16.07;94.67;98788.25;4975072;28;20137;-76
2021/08/20 04:22:38;;;;;;;4.55;3.33;;;;;;;16.06;94.84;98791.78;4974877;28;20065;-75
2021/08/20 04:25:03;;;;;;;3.63;2.58;;;;;;;16.03;95.72;98788.41;4974968;28;20031;-75
2021/08/20 04:27:29;;;;;;;4.70;2.65;;;;;;;16.08;95.08;98795.16;4964425;28;20027;-75
2021/08/20 04:29:54;;;;;;;3.42;2.65;;;;;;;16.05;95.48;98787.47;4940002;28;21445;-70
2021/08/20 04:32:19;;;;;;;8.65;3.00;;;;;;;16.07;95.76;98790.84;4938103;28;20480;-71
2021/08/20 04:34:45;;;;;;;3.70;2.35;;;;;;;16.10;95.69;98793.34;4939077;28;20503;-70
2021/08/20 04:37:10;;;;;;;4.00;2.60;;;;;;;16.08;95.86;98789.94;4938313;28;20037;-71
2021/08/20 04:39:35;;;;;;;2.58;2.22;;;;;;;16.15;95.71;98791.41;4938881;28;21794;-76
2021/08/20 04:42:01;;;;;;;2.88;2.53;;;;;;;16.18;95.43;98800.88;4936140;28;20031;-76
2021/08/20 04:44:26;;;;;;;5.95;3.15;;;;;;;16.19;95.50;98802.56;4938607;28;20039;-75
2021/08/20 04:46:51;;;;;;;3.10;2.55;;;;;;;16.24;95.37;98802.38;4938613;28;20035;-76
2021/08/20 04:49:17;;;;;;;3.50;2.35;;;;;;;16.27;95.08;98810.13;4938045;28;20023;-76
2021/08/20 04:51:42;;;;;;;3.30;2.80;;;;;;;16.22;95.51;98812.06;4939000;28;20030;-77
2021/08/20 04:54:07;;;;;;;3.03;2.50;;;;;;;16.23;95.84;98809.38;4938270;28;20424;-71
2021/08/20 04:56:33;;;;;;;4.90;2.58;;;;;;;16.25;95.98;98809.34;4938832;28;20400;-71
2021/08/20 04:58:58;;;;;;;3.65;2.70;;;;;;;16.23;96.30;98808.53;4945010;28;20393;-72
2021/08/20 05:01:24;;;;;;;3.50;2.58;;;;;;;16.24;96.36;98815.47;4946117;28;20481;-71
2021/08/20 05:03:49;;;;;;;3.47;2.50;;;;;;;16.26;96.26;98813.66;4945873;28;20536;-71
2021/08/20 05:06:14;;;;;;;6.13;2.80;;;;;;;16.23;96.28;98811.16;4946210;28;20039;-71
2021/08/20 05:08:40;;;;;;;3.47;2.75;;;;;;;16.22;96.40;98812.06;4946234;28;20031;-70
2021/08/20 05:11:06;;;;;;;5.35;2.70;;;;;;;16.30;96.29;98820.47;4945758;28;20069;-76
2021/08/20 05:13:32;;;;;;;5.93;2.97;;;;;;;16.21;96.33;98829.53;4946228;29;20110;-76
2021/08/20 05:15:57;;;;;;;11.25;4.13;;;;;;;16.18;97.03;98825.25;4945938;28;20090;-70
2021/08/20 05:18:23;;;;;;;5.35;3.63;;;;;;;16.32;96.36;98831.69;4945973;28;20041;-71
2021/08/20 05:20:48;;;;;;;5.65;2.90;;;;;;;16.32;96.06;98834.31;4946008;28;20030;-76
2021/08/20 05:23:14;;;;;;;4.13;2.90;;;;;;;16.37;96.38;98834.97;4945645;28;20027;-70
2021/08/20 05:25:39;;;;;;;3.85;2.70;;;;;;;16.42;96.01;98830.41;4944480;28;20035;-78
2021/08/20 05:28:06;;;;;;;4.20;3.03;;;;;;;16.41;95.67;98833.94;4945549;29;20062;-70
2021/08/20 05:30:32;;;;;;;7.13;3.25;;;;;;;16.44;95.29;98831.22;4946147;28;20035;-71
2021/08/20 05:32:57;;;;;;;4.68;3.20;;;;;;;16.51;95.69;98837.88;4945480;29;20042;-76
2021/08/20 05:35:23;;;;;;;2.95;2.67;;;;;;;16.57;94.58;98840.22;4945486;28;20034;-72
2021/08/20 05:37:49;;;;;;;3.67;2.92;;;;;;;16.52;94.02;98847.41;4945509;29;20122;-72
2021/08/20 05:40:15;;;;;;;3.47;2.38;;;;;;;16.63;93.98;98850.47;4945582;29;20459;-72
2021/08/20 05:42:40;;;;;;;3.53;2.70;;;;;;;16.78;93.50;98853.38;4945598;29;20068;-72
2021/08/20 05:45:06;;;;;;;3.72;2.70;;;;;;;16.76;93.60;98848.19;4945546;28;20023;-72
2021/08/20 05:47:32;;;;;;;5.72;3.22;;;;;;;16.75;93.27;98854.34;4945409;29;20034;-72
2021/08/20 05:49:58;;;;;;;4.15;3.13;;;;;;;16.89;92.82;98851.16;4945595;28;20050;-72
2021/08/20 05:52:23;;;;;;;4.13;2.63;;;;;;;16.91;92.62;98854.56;4945281;28;20484;-72
2021/08/20 05:54:49;;;;;;;4.25;2.72;;;;;;;16.80;93.50;98848.94;4945406;28;20095;-72
2021/08/20 05:57:14;;;;;;;8.60;3.30;;;;;;;16.82;93.69;98854.94;4943939;28;20066;-72
2021/08/20 05:59:39;;;;;;;7.75;3.38;;;;;;;16.79;93.95;98865.56;4945406;28;20031;-72
2021/08/20 06:02:04;;;;;;;3.92;2.78;;;;;;;16.97;92.83;98867.41;4945209;29;20027;-72
2021/08/20 06:04:30;;;;;;;6.38;2.90;;;;;;;17.08;92.37;98869.56;4944819;29;20039;-72
2021/08/20 06:06:55;;;;;;;4.40;3.17;;;;;;;17.13;92.03;98871.06;4943895;29;20404;-72
2021/08/20 06:09:21;;;;;;;5.35;3.50;;;;;;;17.15;91.72;98865.75;4945180;29;20118;-72
2021/08/20 06:11:46;;;;;;;6.70;3.10;;;;;;;17.40;90.68;98871.59;4945098;29;20038;-72
2021/08/20 06:14:12;;;;;;;5.53;3.40;;;;;;;17.44;90.30;98869.69;4945388;28;20485;-72
2021/08/20 06:16:37;;;;;;;4.97;3.22;;;;;;;17.39;90.00;98877.75;4945121;28;20023;-72
2021/08/20 06:19:03;;;;;;;3.88;3.10;;;;;;;17.41;90.04;98881.19;4945584;28;20035;-72
2021/08/20 06:21:28;;;;;;;5.82;3.47;;;;;;;17.57;89.41;98876.09;4943651;28;20031;-72
2021/08/20 06:23:54;;;;;;;6.50;3.42;;;;;;;17.51;89.38;98876.38;4947717;28;20046;-72
2021/08/20 06:26:19;;;;;;;5.32;3.33;;;;;;;17.62;89.41;98884.59;4949161;28;20043;-77
2021/08/20 06:28:45;;;;;;;3.25;2.80;;;;;;;17.79;88.37;98880.41;4949273;28;20031;-77
2021/08/20 06:31:10;;;;;;;4.57;2.85;;;;;;;17.83;87.60;98882.81;4948982;28;20480;-78
2021/08/20 06:33:37;;;;;;;7.85;3.45;;;;;;;18.07;87.01;98885.22;4948835;28;20027;-75
2021/08/20 06:36:03;;;;;;;5.70;2.78;;;;;;;18.32;86.00;98890.16;4948767;28;20027;-75
2021/08/20 06:38:28;;;;;;;4.22;2.85;;;;;;;18.47;84.57;98884.19;4948896;29;20034;-77
2021/08/20 06:40:54;;;;;;;2.60;2.40;;;;;;;18.55;83.89;98887.28;4948833;28;20436;-77
2021/08/20 06:43:20;;;;;;;4.40;2.85;;;;;;;18.65;82.60;98883.28;4948740;28;20381;-77
2021/08/20 06:45:46;;;;;;;2.97;2.15;;;;;;;18.57;82.04;98895.94;4948680;28;20090;-77
2021/08/20 06:48:12;;;;;;;3.50;2.83;;;;;;;18.80;80.96;98880.84;4948739;29;20129;-77
2021/08/20 06:50:37;;;;;;;2.70;2.50;;;;;;;19.06;80.71;98888.28;4946573;28;20027;-75
2021/08/20 06:53:02;;;;;;;5.93;2.45;;;;;;;19.25;80.00;98883.78;4940969;28;20035;-77
2021/08/20 06:55:32;;;;;;;4.32;2.80;;;;;;;19.44;79.42;98881.06;4954601;28;20015;-77
2021/08/20 06:57:57;;;;;;;3.08;2.30;;;;;;;19.50;78.61;98882.50;4940266;28;20027;-75
2021/08/20 07:00:22;;;;;;;2.80;2.25;;;;;;;19.84;77.30;98878.09;4940466;28;20046;-70
2021/08/20 07:02:48;;;;;;;3.33;2.55;;;;;;;20.00;76.67;98871.06;4939956;28;20034;-70
2021/08/20 07:05:15;;;;;;;6.05;2.47;;;;;;;20.34;75.29;98882.34;4938956;28;20023;-70
2021/08/20 07:07:41;;;;;;;3.95;2.70;;;;;;;20.51;73.63;98880.50;4940070;28;20035;-76
2021/08/20 07:10:09;;;;;;;4.80;2.95;;;;;;;21.27;70.98;98877.81;4940443;28;21443;-71
2021/08/20 07:12:34;;;;;;;2.63;2.30;;;;;;;22.30;65.90;98877.59;4940352;28;20340;-76
2021/08/20 07:14:59;;;;;;;2.85;2.42;;;;;;;23.05;62.58;98877.09;4939681;28;20030;-76
2021/08/20 07:17:25;;;;;;;3.53;2.35;;;;;;;23.20;61.56;98870.78;4938402;28;20039;-71
2021/08/20 07:19:50;;;;;;;6.05;2.13;;;;;;;23.89;58.79;98873.09;4940036;28;20473;-71
2021/08/20 07:22:15;;;;;;;3.05;2.28;;;;;;;24.74;56.73;98871.31;4946575;28;20568;-77
2021/08/20 07:24:40;;;;;;;6.63;2.90;;;;;;;25.79;51.64;98879.19;4947874;29;20499;-71
2021/08/20 07:27:06;;;;;;;3.85;2.58;;;;;;;26.22;49.58;98880.22;4947985;28;20062;-71
2021/08/20 07:29:31;;;;;;;4.10;2.58;;;;;;;27.42;47.88;98872.84;4948417;29;20078;-70
2021/08/20 07:31:56;;;;;;;3.72;2.28;;;;;;;29.21;43.23;98868.47;4947832;29;20445;-71
2021/08/20 07:34:22;;;;;;;2.95;2.63;;;;;;;29.76;40.99;98872.13;4947519;28;20122;-71
2021/08/20 07:36:47;;;;;;;5.82;2.65;;;;;;;29.39;41.93;98869.41;4947876;28;20114;-78
2021/08/20 07:39:12;;;;;;;5.30;2.78;;;;;;;29.54;40.68;98867.09;4947707;29;20035;-76
2021/08/20 07:41:38;;;;;;;3.20;2.45;;;;;;;28.97;43.06;98868.94;4947777;29;20118;-71
2021/08/20 07:44:03;;;;;;;4.93;2.67;;;;;;;29.44;41.25;98867.97;4947954;28;20031;-70
2021/08/20 07:46:29;;;;;;;7.28;2.53;;;;;;;29.37;41.71;98869.56;4962465;28;20070;-71
2021/08/20 07:48:54;;;;;;;4.45;3.15;;;;;;;28.94;42.22;98876.22;4947498;28;20035;-75
2021/08/20 07:51:19;;;;;;;5.85;2.75;;;;;;;30.13;40.52;98879.28;4947266;28;20091;-71
2021/08/20 07:53:45;;;;;;;3.95;2.85;;;;;;;30.07;40.24;98879.84;4947639;29;20038;-70
2021/08/20 07:56:10;;;;;;;5.93;2.78;;;;;;;29.23;41.93;98878.00;4942315;28;20043;-70
2021/08/20 07:58:35;;;;;;;7.95;3.08;;;;;;;29.41;41.38;98876.28;4931384;28;20154;-78
2021/08/20 08:01:00;;;;;;;5.70;2.80;;;;;;;29.43;41.24;98876.13;4946389;28;20033;-70
2021/08/20 08:03:26;;;;;;;4.00;2.88;;;;;;;29.81;41.16;98880.53;4946852;29;20023;-71
2021/08/20 08:05:51;;;;;;;5.97;2.90;;;;;;;30.07;40.11;98882.50;4947313;28;20039;-78
2021/08/20 08:08:17;;;;;;;6.10;2.78;;;;;;;31.87;36.89;98883.13;4947369;28;20392;-76
2021/08/20 08:10:43;;;;;;;6.22;3.00;;;;;;;31.38;37.35;98876.63;4946374;29;20027;-70
2021/08/20 08:13:09;;;;;;;3.67;3.15;;;;;;;30.91;38.22;98883.13;4947165;29;21393;-70
2021/08/20 08:15:34;;;;;;;3.20;2.90;;;;;;;32.16;36.03;98882.75;4944501;28;20041;-70
2021/08/20 08:17:59;;;;;;;3.47;3.05;;;;;;;32.94;35.16;98874.38;4947045;28;20038;-76
2021/08/20 08:20:25;;;;;;;5.88;3.67;;;;;;;32.76;34.73;98879.03;4946575;28;20126;-78
2021/08/20 08:22:50;;;;;;;4.30;3.58;;;;;;;29.88;39.42;98892.31;4945184;28;20031;-70
2021/08/20 08:25:16;;;;;;;5.07;3.72;;;;;;;27.51;44.78;98888.97;4946840;28;20047;-76
2021/08/20 08:28:08;;;;;;;7.65;3.45;;;;;;;25.80;49.94;98904.75;4946741;29;20065;-70
2021/08/20 08:30:36;;;;;;;13.70;4.70;;;;;;;24.85;52.23;98901.38;4941313;28;20039;-70
2021/08/20 08:33:03;;;;;;;5.80;3.50;;;;;;;26.40;48.54;98903.50;4946060;29;20408;-77
2021/08/20 08:35:28;;;;;;;9.10;3.00;;;;;;;28.01;44.80;98899.75;4946057;28;20043;-75
2021/08/20 08:38:15;;;;;;;5.95;3.78;;;;;;;31.34;37.13;98892.19;4946786;28;20022;-70
2021/08/20 08:40:45;;;;;;;7.72;3.30;;;;;;;30.15;39.68;98901.34;4941007;29;20055;-77
2021/08/20 08:43:12;;;;;;;5.22;3.90;;;;;;;29.76;39.79;98901.50;4946052;28;20493;-78
2021/08/20 08:45:38;;;;;;;4.15;3.35;;;;;;;29.57;39.96;98901.56;4945128;28;20130;-71
2021/08/20 08:48:05;;;;;;;5.63;2.92;;;;;;;28.91;41.80;98897.84;4946408;29;20035;-71
2021/08/20 08:50:32;;;;;;;6.72;3.08;;;;;;;27.91;43.96;98897.91;4945119;28;20031;-71
2021/08/20 08:52:57;;;;;;;5.85;3.35;;;;;;;28.48;43.18;98892.91;4938961;28;20102;-71
2021/08/20 08:55:23;;;;;;;5.68;4.07;;;;;;;29.70;39.93;98902.09;4939538;28;20034;-76
2021/08/20 08:57:48;;;;;;;3.95;3.33;;;;;;;29.43;40.50;98895.66;4938816;28;20053;-76
2021/08/20 09:00:27;;;;;;;5.18;3.60;;;;;;;28.56;42.02;98897.53;4939205;28;20059;-70
2021/08/20 09:02:52;;;;;;;5.63;3.47;;;;;;;29.83;40.03;98893.72;4939111;28;20067;-77
2021/08/20 09:05:17;;;;;;;4.05;3.42;;;;;;;32.02;35.99;98888.72;4938991;28;20114;-70
2021/08/20 09:07:42;;;;;;;4.53;3.08;;;;;;;32.15;35.35;98888.25;4938950;28;20114;-71
2021/08/20 09:10:20;;;;;;;3.77;2.70;;;;;;;32.37;34.37;98882.31;4938288;28;20047;-76
2021/08/20 09:12:53;;;;;;;9.15;3.65;;;;;;;31.48;35.73;98880.06;4938900;28;20282;-71
2021/08/20 09:15:22;;;;;;;6.03;4.05;;;;;;;29.84;38.61;98890.94;4938516;28;20023;-71
2021/08/20 09:17:55;;;;;;;4.82;3.28;;;;;;;31.13;37.67;98881.78;4939046;28;20031;-71
2021/08/20 09:20:28;;;;;;;5.18;2.60;;;;;;;32.49;33.99;98883.72;4938435;28;20122;-76
2021/08/20 09:22:56;;;;;;;3.05;2.75;;;;;;;33.12;31.92;98889.44;4945304;29;20119;-71
2021/08/20 09:25:44;;;;;;;4.93;3.72;;;;;;;29.64;38.58;98890.19;4944374;28;20449;-76
2021/08/20 09:28:18;;;;;;;4.23;3.37;;;;;;;27.08;43.20;98890.00;4945932;29;20452;-77
2021/08/20 09:30:56;;;;;;;5.10;3.45;;;;;;;26.34;46.25;98893.34;4945223;28;20548;-78
2021/08/20 09:33:26;;;;;;;4.38;3.25;;;;;;;26.16;47.42;98894.84;4944256;29;20038;-77
2021/08/20 09:36:09;;;;;;;6.03;3.25;;;;;;;26.89;46.08;98888.84;4944128;28;20031;-76
2021/08/20 09:38:37;;;;;;;3.95;2.42;;;;;;;30.11;38.46;98886.56;4944513;28;20031;-76
2021/08/20 09:41:06;;;;;;;5.28;3.58;;;;;;;26.21;46.12;98900.63;4945814;28;20042;-76
2021/08/20 09:43:36;;;;;;;3.92;2.92;;;;;;;26.65;46.46;98888.22;4944522;29;20078;-76
2021/08/20 09:46:16;;;;;;;3.40;2.92;;;;;;;24.71;49.07;98888.31;4945717;28;20128;-76
2021/08/20 09:48:59;;;;;;;5.32;2.75;;;;;;;25.29;49.04;98889.25;4945520;28;20038;-71
2021/08/20 09:51:30;;;;;;;8.30;3.03;;;;;;;25.20;49.62;98891.75;4945263;28;21503;-76
2021/08/20 09:54:00;;;;;;;4.57;3.15;;;;;;;25.55;49.74;98894.34;4959486;28;20046;-70
2021/08/20 09:56:26;;;;;;;4.05;2.88;;;;;;;26.95;46.10;98886.66;4944946;28;20023;-70
2021/08/20 09:58:59;;;;;;;4.65;3.42;;;;;;;26.91;45.60;98886.03;4945029;29;20378;-70
2021/08/20 10:01:28;;;;;;;4.53;3.47;;;;;;;26.79;46.44;98890.59;4945213;29;20057;-76
2021/08/20 10:03:56;;;;;;;4.53;3.00;;;;;;;25.79;48.14;98892.44;4945021;29;20070;-70
2021/08/20 10:06:24;;;;;;;4.63;3.22;;;;;;;25.21;48.75;98896.94;4944154;28;20035;-70
2021/08/20 10:08:50;;;;;;;7.53;3.88;;;;;;;24.49;51.33;98893.50;4944308;29;20081;-79
2021/08/20 10:11:16;;;;;;;7.68;3.47;;;;;;;24.18;51.99;98893.06;4944767;29;20038;-72
2021/08/20 10:13:43;;;;;;;4.63;3.45;;;;;;;24.71;52.40;98896.25;4942354;28;20027;-72
2021/08/20 10:16:09;;;;;;;7.75;3.50;;;;;;;24.47;52.68;98895.41;4939970;28;20114;-71
2021/08/20 10:18:35;;;;;;;5.72;3.65;;;;;;;24.64;51.98;98880.91;4944088;28;20484;-72
2021/08/20 10:21:02;;;;;;;3.53;3.20;;;;;;;26.00;48.84;98889.06;4944565;28;20039;-71
2021/08/20 10:23:28;;;;;;;6.10;3.55;;;;;;;27.48;45.07;98883.94;4942200;29;20024;-72
2021/08/20 10:25:56;;;;;;;10.32;3.28;;;;;;;28.02;43.05;98877.47;4944839;28;20090;-72
2021/08/20 10:28:22;;;;;;;5.93;3.17;;;;;;;28.23;43.21;98880.88;4944676;29;20114;-78
2021/08/20 10:30:50;;;;;;;4.30;2.85;;;;;;;30.38;37.83;98881.25;4944722;28;20050;-78
2021/08/20 10:33:29;;;;;;;4.85;3.28;;;;;;;32.33;34.01;98872.88;4941862;28;20397;-72
2021/08/20 10:35:56;;;;;;;5.25;2.70;;;;;;;32.75;34.26;98872.00;4943930;29;20134;-78
2021/08/20 10:38:41;;;;;;;3.33;2.67;;;;;;;32.26;34.64;98877.25;4945073;28;20035;-72
2021/08/20 10:41:13;;;;;;;4.57;2.70;;;;;;;32.80;32.45;98874.19;4944113;28;20059;-79
2021/08/20 10:43:48;;;;;;;3.80;2.33;;;;;;;33.34;32.06;98864.59;4944931;29;20106;-77
2021/08/20 10:46:32;;;;;;;3.55;1.70;;;;;;;33.07;29.83;98870.31;4944979;29;20126;-78
2021/08/20 10:49:10;;;;;;;1.63;1.50;;;;;;;31.93;29.34;98861.03;4945120;28;20107;-77
2021/08/20 10:51:55;;;;;;;2.35;2.10;;;;;;;33.03;28.32;98858.28;4942679;28;20086;-72
2021/08/20 10:54:41;;;;;;;1.75;1.60;;;;;;;31.76;30.95;98859.25;4944781;29;20665;-72
2021/08/20 10:57:27;;;;;;;5.20;1.90;;;;;;;32.98;30.84;98864.97;4944502;28;20046;-77
2021/08/20 10:59:52;;;;;;;2.42;1.90;;;;;;;34.45;26.93;98858.31;4944610;29;20062;-79
2021/08/20 11:02:21;;;;;;;3.33;2.30;;;;;;;30.89;31.96;98865.53;4944527;29;20469;-72
2021/08/20 11:04:55;;;;;;;3.47;2.35;;;;;;;32.31;31.89;98853.44;4943958;28;20027;-72
2021/08/20 11:07:33;;;;;;;3.05;2.10;;;;;;;32.04;30.48;98864.41;4943772;28;20039;-79
2021/08/20 11:09:58;;;;;;;6.22;2.97;;;;;;;33.59;29.33;98843.91;4946643;28;20028;-79
2021/08/20 11:12:51;;;;;;;3.95;2.30;;;;;;;33.62;30.89;98853.47;4947652;28;20078;-75
2021/08/20 11:15:25;;;;;;;6.00;4.32;;;;;;;33.35;32.36;98860.88;4947357;28;20389;-70
2021/08/20 11:17:56;;;;;;;3.40;2.97;;;;;;;26.33;44.69;98875.72;4948098;28;20027;-77
2021/08/20 11:20:23;;;;;;;3.75;2.75;;;;;;;24.90;48.99;98865.69;4948354;28;20403;-71
2021/08/20 11:23:04;;;;;;;7.55;3.00;;;;;;;23.69;52.24;98869.19;4947882;29;20106;-70
2021/08/20 11:25:35;;;;;;;6.20;3.33;;;;;;;23.83;52.69;98877.00;4947563;29;20030;-70
2021/08/20 11:28:03;;;;;;;4.40;2.83;;;;;;;26.77;46.29;98873.91;4947736;29;20122;-77
2021/08/20 11:30:30;;;;;;;4.65;2.80;;;;;;;28.78;39.18;98864.41;4948120;29;20430;-71
2021/08/20 11:33:14;;;;;;;7.35;4.70;;;;;;;30.74;34.22;98865.22;4947239;29;20027;-71
2021/08/20 11:35:41;;;;;;;6.80;2.38;;;;;;;31.11;33.29;98856.16;4948019;28;20066;-78
2021/08/20 11:38:07;;;;;;;4.35;2.53;;;;;;;31.97;32.05;98858.88;4946903;29;20396;-70
2021/08/20 11:40:45;;;;;;;3.78;2.58;;;;;;;30.97;32.27;98852.22;4947678;28;20038;-76
2021/08/20 11:43:11;;;;;;;3.95;2.40;;;;;;;32.27;32.51;98857.47;4952621;28;20504;-70
2021/08/20 11:45:38;;;;;;;2.63;2.17;;;;;;;32.79;32.06;98846.50;4947081;28;20035;-70
2021/08/20 11:48:04;;;;;;;5.97;2.55;;;;;;;32.24;32.05;98847.88;4946977;29;20086;-71
2021/08/20 11:50:31;;;;;;;6.85;2.30;;;;;;;32.22;32.21;98849.06;4946998;28;20067;-78
2021/08/20 11:52:58;;;;;;;3.33;2.15;;;;;;;32.87;31.59;98843.78;4947462;28;20030;-78
2021/08/20 11:55:23;;;;;;;6.82;2.22;;;;;;;31.12;33.35;98857.84;4947467;28;20027;-76
2021/08/20 11:57:49;;;;;;;2.75;2.28;;;;;;;30.26;34.52;98858.38;4946311;29;20023;-77
2021/08/20 12:00:15;;;;;;;4.95;2.30;;;;;;;32.13;31.08;98856.25;4946801;28;20057;-76
2021/08/20 12:02:41;;;;;;;4.03;2.10;;;;;;;31.78;30.74;98846.53;4946596;28;20027;-76
2021/08/20 12:05:16;;;;;;;2.88;2.10;;;;;;;31.30;31.26;98847.97;4947202;29;20079;-77
2021/08/20 12:07:41;;;;;;;2.55;2.35;;;;;;;29.61;33.99;98857.56;4947294;29;20408;-77
2021/08/20 12:10:08;;;;;;;4.95;2.30;;;;;;;28.57;36.29;98843.22;4946661;28;20035;-77
2021/08/20 12:12:37;;;;;;;2.20;1.98;;;;;;;29.77;35.92;98851.59;4946080;29;20035;-71
2021/08/20 12:15:03;;;;;;;7.45;2.42;;;;;;;29.24;35.85;98839.66;4946889;28;20090;-78
2021/08/20 12:17:33;;;;;;;2.63;2.20;;;;;;;28.40;37.42;98842.94;4944746;28;20035;-71
2021/08/20 12:19:59;;;;;;;9.18;2.58;;;;;;;27.19;38.20;98842.03;4944312;28;20074;-78
2021/08/20 12:22:36;;;;;;;4.55;4.10;;;;;;;27.61;39.21;98844.63;4944631;28;20027;-71
2021/08/20 12:25:14;;;;;;;2.90;2.47;;;;;;;27.48;39.31;98849.34;4944515;29;20085;-79
2021/08/20 12:27:41;;;;;;;3.03;2.28;;;;;;;27.31;39.38;98843.63;4945127;28;20038;-70
2021/08/20 12:30:09;;;;;;;2.83;2.60;;;;;;;26.19;39.50;98851.25;4945429;28;20118;-76
2021/08/20 12:32:40;;;;;;;3.53;2.08;;;;;;;26.43;41.14;98851.91;4945859;29;20381;-78
2021/08/20 12:35:17;;;;;;;5.85;2.70;;;;;;;25.42;42.04;98861.75;4945922;28;20042;-75
2021/08/20 12:38:06;;;;;;;4.47;2.50;;;;;;;26.70;39.61;98845.31;4946440;29;20055;-76
2021/08/20 12:40:32;;;;;;;5.53;2.25;;;;;;;26.95;40.01;98844.09;4946687;28;20113;-75
2021/08/20 12:42:58;;;;;;;4.32;2.00;;;;;;;26.60;39.45;98853.22;4946625;29;20372;-78
2021/08/20 12:45:24;;;;;;;2.88;2.03;;;;;;;25.82;40.17;98860.38;4946073;28;20055;-78
2021/08/20 12:48:05;;;;;;;3.75;2.53;;;;;;;25.09;42.44;98861.59;4945624;29;20030;-76
2021/08/20 12:50:35;;;;;;;5.70;2.40;;;;;;;25.81;41.60;98858.66;4946306;28;20027;-71
2021/08/20 12:53:10;;;;;;;3.40;2.95;;;;;;;24.82;42.76;98864.50;4946574;28;20035;-77
2021/08/20 12:55:43;;;;;;;7.47;2.53;;;;;;;26.12;40.34;98848.25;4946178;28;20543;-70
2021/08/20 12:58:08;;;;;;;3.40;2.60;;;;;;;26.21;40.63;98849.31;4945453;29;20505;-77
2021/08/20 13:00:36;;;;;;;2.60;2.30;;;;;;;26.26;40.23;98847.13;4945914;29;20039;-76
2021/08/20 13:03:05;;;;;;;3.05;2.00;;;;;;;26.85;40.27;98839.53;4945871;28;20035;-71
2021/08/20 13:05:31;;;;;;;3.58;2.47;;;;;;;27.03;39.73;98836.28;4945833;28;21008;-78
2021/08/20 13:07:56;;;;;;;3.28;2.42;;;;;;;25.56;40.51;98842.94;4945283;29;20090;-71
2021/08/20 13:10:21;;;;;;;2.67;2.47;;;;;;;26.60;40.01;98834.59;4945292;28;20185;-78
2021/08/20 13:12:47;;;;;;;2.70;2.30;;;;;;;27.05;39.00;98834.34;4945969;28;20023;-78
2021/08/20 13:15:15;;;;;;;2.60;2.35;;;;;;;25.77;41.32;98840.44;4946009;28;21543;-77
2021/08/20 13:17:41;;;;;;;2.47;2.25;;;;;;;26.04;40.74;98837.38;4946075;28;20106;-78
2021/08/20 13:20:07;;;;;;;3.50;2.47;;;;;;;25.05;41.45;98840.69;4945821;28;20027;-76
2021/08/20 13:22:34;;;;;;;3.03;2.10;;;;;;;25.88;41.75;98837.78;4945236;29;20543;-71
2021/08/20 13:24:59;;;;;;;5.10;2.13;;;;;;;26.55;39.41;98827.00;4945793;29;20032;-76
2021/08/20 13:27:25;;;;;;;8.85;2.40;;;;;;;25.30;41.33;98843.19;4945864;28;20031;-71
2021/08/20 13:29:50;;;;;;;2.35;1.88;;;;;;;26.83;39.94;98833.50;4945750;28;20051;-76
2021/08/20 13:32:15;;;;;;;3.28;2.58;;;;;;;25.55;40.54;98841.25;4944977;28;20035;-78
2021/08/20 13:34:41;;;;;;;3.60;2.00;;;;;;;24.97;43.11;98841.28;4945114;29;20023;-71
2021/08/20 13:37:06;;;;;;;2.45;2.25;;;;;;;25.03;43.50;98839.97;4945625;28;20042;-71
2021/08/20 13:39:31;;;;;;;3.33;2.17;;;;;;;25.50;42.46;98843.44;4945830;28;20123;-76
2021/08/20 13:41:57;;;;;;;4.38;3.00;;;;;;;25.94;41.10;98839.09;4945572;28;20102;-71
2021/08/20 13:44:22;;;;;;;4.85;2.42;;;;;;;25.60;42.07;98833.78;4944767;28;20110;-78
2021/08/20 13:46:48;;;;;;;3.20;2.10;;;;;;;25.23;42.42;98835.81;4945340;28;20519;-71
2021/08/20 13:49:15;;;;;;;2.90;2.30;;;;;;;25.26;42.18;98831.13;4942694;29;20039;-71
2021/08/20 13:51:41;;;;;;;8.70;2.60;;;;;;;24.93;41.83;98833.66;4943846;28;21331;-76
2021/08/20 13:54:07;;;;;;;3.60;2.40;;;;;;;24.64;42.55;98828.75;4945323;28;20122;-75
2021/08/20 13:56:32;;;;;;;2.35;2.15;;;;;;;25.02;41.85;98828.50;4944642;28;20062;-78
2021/08/20 13:58:58;;;;;;;2.58;2.22;;;;;;;25.37;42.46;98828.47;4945410;29;20666;-78
2021/08/20 14:01:24;;;;;;;3.80;2.38;;;;;;;26.18;40.64;98821.19;4945148;29;20045;-76
2021/08/20 14:03:49;;;;;;;3.35;2.50;;;;;;;26.61;38.95;98820.34;4944970;29;20067;-70
2021/08/20 14:06:14;;;;;;;7.88;2.20;;;;;;;26.72;40.98;98825.59;4944671;28;20037;-71
2021/08/20 14:08:40;;;;;;;3.67;2.50;;;;;;;26.25;40.09;98827.66;4944737;28;20110;-71
2021/08/20 14:11:06;;;;;;;8.98;2.47;;;;;;;25.77;40.79;98835.13;4945104;28;20064;-76
2021/08/20 14:13:32;;;;;;;2.90;2.17;;;;;;;25.98;40.27;98827.28;4945385;28;20386;-71
2021/08/20 14:15:57;;;;;;;7.20;2.20;;;;;;;25.85;41.75;98828.25;4945018;28;21384;-76
2021/08/20 14:18:23;;;;;;;7.05;5.03;;;;;;;26.35;39.93;98820.66;4944490;28;20035;-71
2021/08/20 14:20:48;;;;;;;5.63;2.30;;;;;;;25.32;41.96;98825.31;4945023;28;20085;-70
2021/08/20 14:23:14;;;;;;;3.25;2.33;;;;;;;25.73;40.71;98828.34;4944987;28;20114;-76
2021/08/20 14:25:39;;;;;;;3.35;2.10;;;;;;;26.48;39.62;98819.66;4942588;28;20181;-76
2021/08/20 14:28:05;;;;;;;2.20;2.00;;;;;;;26.04;40.63;98816.13;4944756;28;20039;-76
2021/08/20 14:30:30;;;;;;;2.50;2.30;;;;;;;26.56;40.57;98812.75;4941905;29;20408;-78
2021/08/20 14:32:58;;;;;;;3.40;2.45;;;;;;;25.27;40.72;98829.31;4944745;28;20027;-76
2021/08/20 14:35:23;;;;;;;5.35;2.30;;;;;;;25.07;42.05;98825.53;4944910;29;20027;-78
2021/08/20 14:37:49;;;;;;;4.03;2.28;;;;;;;25.26;41.88;98824.97;4944868;29;20515;-75
2021/08/20 14:40:14;;;;;;;7.53;2.92;;;;;;;24.84;41.76;98827.25;4944865;29;20067;-71
2021/08/20 14:42:39;;;;;;;4.20;3.03;;;;;;;25.13;42.30;98833.00;4944253;28;20031;-71
2021/08/20 14:45:05;;;;;;;3.75;2.58;;;;;;;25.58;41.64;98830.41;4948024;28;20038;-76
2021/08/20 14:47:30;;;;;;;7.80;2.65;;;;;;;25.31;41.15;98823.66;4948717;29;20035;-76
2021/08/20 14:49:56;;;;;;;2.75;2.28;;;;;;;25.92;40.48;98825.94;4948868;28;20034;-76
2021/08/20 14:52:21;;;;;;;2.92;2.25;;;;;;;26.32;41.31;98826.22;4948106;28;20112;-72
2021/08/20 14:54:46;;;;;;;3.88;2.10;;;;;;;26.43;39.92;98816.53;4948179;28;20110;-78
2021/08/20 14:57:12;;;;;;;4.15;2.50;;;;;;;25.95;40.72;98823.03;4948662;28;20038;-70
2021/08/20 14:59:37;;;;;;;7.53;3.75;;;;;;;25.51;40.61;98829.19;4948661;28;20027;-70
2021/08/20 15:02:04;;;;;;;2.45;2.25;;;;;;;25.34;40.73;98818.09;4945505;28;20085;-77
2021/08/20 15:04:29;;;;;;;2.97;2.53;;;;;;;25.23;40.41;98825.19;4947221;28;20384;-77
2021/08/20 15:06:55;;;;;;;3.90;2.45;;;;;;;24.98;41.64;98821.75;4948243;29;20035;-70
2021/08/20 15:09:20;;;;;;;3.10;2.30;;;;;;;24.75;41.38;98823.50;4948493;28;20031;-69
2021/08/20 15:11:46;;;;;;;2.05;1.92;;;;;;;24.69;42.57;98826.59;4948097;28;20109;-77
2021/08/20 15:14:11;;;;;;;2.45;2.25;;;;;;;24.50;41.61;98819.19;4948279;29;20039;-70
2021/08/20 15:16:37;;;;;;;2.42;2.22;;;;;;;24.51;42.24;98828.81;4947054;28;20031;-77
2021/08/20 15:19:03;;;;;;;2.58;2.38;;;;;;;24.20;44.00;98840.81;4948298;28;20133;-75
2021/08/20 15:21:32;;;;;;;2.80;2.28;;;;;;;24.19;44.23;98831.19;4947767;29;20038;-79
2021/08/20 15:23:58;;;;;;;3.25;2.20;;;;;;;24.34;45.12;98832.69;4947117;29;20027;-72
2021/08/20 15:26:24;;;;;;;2.67;2.42;;;;;;;24.68;44.06;98835.53;4947648;28;20053;-72
2021/08/20 15:28:49;;;;;;;2.40;2.20;;;;;;;25.09;42.00;98835.09;4947491;29;20031;-73
2021/08/20 15:31:15;;;;;;;10.93;2.50;;;;;;;24.42;44.23;98833.97;4947782;28;20066;-73
2021/08/20 15:33:41;;;;;;;4.13;2.28;;;;;;;24.42;43.48;98828.66;4947705;28;20120;-72
2021/08/20 15:36:06;;;;;;;4.15;1.95;;;;;;;24.53;44.31;98834.03;4947722;29;20034;-73
2021/08/20 15:38:31;;;;;;;7.90;2.20;;;;;;;23.69;44.41;98835.69;4947137;29;20097;-72
2021/08/20 15:40:58;;;;;;;2.95;2.30;;;;;;;24.39;44.80;98828.91;4947619;28;20027;-72
2021/08/20 15:43:23;;;;;;;3.13;2.30;;;;;;;25.02;43.86;98830.31;4947543;29;20031;-73
2021/08/20 15:45:49;;;;;;;4.20;2.58;;;;;;;25.23;42.94;98826.03;4947764;28;20488;-72
2021/08/20 15:48:14;;;;;;;3.20;2.53;;;;;;;25.05;41.52;98833.59;4947684;28;20023;-72
2021/08/20 15:50:41;;;;;;;3.72;2.00;;;;;;;25.62;40.77;98832.69;4946650;29;20027;-73